Time;durP1;ratioP1;P1;durP2;ratioP2;P2;SDS_P1;SDS_P2;PMS_P1;PMS_P2;Temp;Humidity;BMP_temperature;BMP_pressure;BME280_temperature;BME280_humidity;BME280_pressure;Samples;Min_cycle;Max_cycle;Signal;HPM_P1;HPM_P2
2021/07/22 00:00:38;;;;;;;;;;;;;;;25.02;46.61;102140.50;2204510;39;115985;-54
2021/07/22 00:02:10;;;;;;;;;;;;;;;24.99;46.52;102138.25;2211142;39;113720;-54
2021/07/22 00:03:42;;;;;;;;;;;;;;;25.00;46.69;102136.28;2209763;39;113773;-54
2021/07/22 00:05:33;;;;;;;;;;;;;;;25.01;46.65;102137.97;2210816;39;113698;-54
2021/07/22 00:07:04;;;;;;;;;;;;;;;25.00;46.34;102142.78;2210708;39;113767;-54
2021/07/22 00:08:36;;;;;;;;;;;;;;;24.99;46.30;102134.59;2210819;39;113750;-54
2021/07/22 00:10:08;;;;;;;;;;;;;;;24.97;46.55;102143.41;2213319;39;113978;-54
2021/07/22 00:11:43;;;;;;;;;;;;;;;24.98;46.50;102144.25;2211320;39;114201;-54
2021/07/22 00:13:14;;;;;;;;;;;;;;;24.98;46.63;102145.09;2201134;39;113901;-54
2021/07/22 00:14:46;;;;;;;;;;;;;;;24.97;46.33;102143.41;2210534;39;114011;-55
2021/07/22 00:16:19;;;;;;;;;;;;;;;24.98;46.69;102147.06;2210562;39;113647;-54
2021/07/22 00:17:50;;;;;;;;;;;;;;;24.98;46.55;102141.41;2205320;39;114987;-54
2021/07/22 00:19:22;;;;;;;;;;;;;;;24.98;46.40;102147.06;2208195;39;114956;-54
2021/07/22 00:20:53;;;;;;;;;;;;;;;24.97;46.32;102139.72;2209800;39;114516;-54
2021/07/22 00:22:25;;;;;;;;;;;;;;;24.94;46.59;102140.38;2204452;39;114831;-54
2021/07/22 00:23:57;;;;;;;;;;;;;;;24.94;46.41;102146.84;2209637;39;114574;-54
2021/07/22 00:25:29;;;;;;;;;;;;;;;24.93;46.55;102142.34;2210222;39;114860;-54
2021/07/22 00:27:01;;;;;;;;;;;;;;;24.93;46.85;102139.53;2210774;39;115275;-54
2021/07/22 00:28:32;;;;;;;;;;;;;;;24.92;46.62;102137.84;2210935;39;115527;-54
2021/07/22 00:30:05;;;;;;;;;;;;;;;24.91;46.61;102136.16;2208862;39;115500;-54
2021/07/22 00:31:36;;;;;;;;;;;;;;;24.92;46.80;102137.00;2208020;39;114001;-54
2021/07/22 00:33:08;;;;;;;;;;;;;;;24.92;46.27;102135.00;2209250;39;115260;-54
2021/07/22 00:34:40;;;;;;;;;;;;;;;24.92;48.16;102135.00;2210225;39;113811;-54
2021/07/22 00:36:12;;;;;;;;;;;;;;;24.93;47.10;102144.34;2205620;39;115531;-54
2021/07/22 00:37:44;;;;;;;;;;;;;;;24.93;47.13;102142.34;2216103;39;114525;-54
2021/07/22 00:39:17;;;;;;;;;;;;;;;24.95;47.49;102136.38;2209451;39;115458;-54
2021/07/22 00:40:49;;;;;;;;;;;;;;;24.95;47.80;102142.03;2206731;39;115570;-54
2021/07/22 00:42:21;;;;;;;;;;;;;;;24.97;47.68;102142.56;2206215;39;114908;-54
2021/07/22 00:43:52;;;;;;;;;;;;;;;24.97;48.06;102139.72;2207006;39;115817;-54
2021/07/22 00:45:24;;;;;;;;;;;;;;;24.97;48.31;102132.09;2205915;39;116107;-54
2021/07/22 00:46:56;;;;;;;;;;;;;;;24.98;48.38;102139.44;2209132;39;115697;-54
2021/07/22 00:48:27;;;;;;;;;;;;;;;24.99;48.60;102131.75;2209420;39;116221;-54
2021/07/22 00:50:00;;;;;;;;;;;;;;;24.99;48.81;102134.59;2203967;39;115896;-54
2021/07/22 00:51:32;;;;;;;;;;;;;;;25.00;49.00;102139.09;2206859;39;115504;-54
2021/07/22 00:53:03;;;;;;;;;;;;;;;25.01;48.88;102138.81;2210277;39;115688;-55
2021/07/22 00:54:35;;;;;;;;;;;;;;;25.00;48.94;102134.28;2211177;39;115651;-54
2021/07/22 00:56:07;;;;;;;;;;;;;;;25.00;49.13;102122.97;2210613;39;115741;-55
2021/07/22 00:57:38;;;;;;;;;;;;;;;25.01;49.15;102132.31;2210509;39;115710;-54
2021/07/22 00:59:10;;;;;;;;;;;;;;;25.01;49.51;102129.47;2212992;39;115491;-54
2021/07/22 01:00:42;;;;;;;;;;;;;;;25.00;49.67;102128.63;2210240;39;113719;-54
2021/07/22 01:02:14;;;;;;;;;;;;;;;25.01;49.68;102130.31;2210505;39;113649;-54
2021/07/22 01:03:46;;;;;;;;;;;;;;;25.03;49.67;102130.03;2200033;39;113710;-54
2021/07/22 01:05:18;;;;;;;;;;;;;;;25.04;49.65;102123.19;2199719;39;113901;-54
2021/07/22 01:06:49;;;;;;;;;;;;;;;25.03;49.51;102124.38;2207854;39;114249;-54
2021/07/22 01:08:21;;;;;;;;;;;;;;;25.03;49.92;102121.53;2210629;39;113945;-54
2021/07/22 01:09:52;;;;;;;;;;;;;;;25.04;49.91;102123.19;2209966;39;113887;-54
2021/07/22 01:11:24;;;;;;;;;;;;;;;25.03;49.81;102115.88;2210201;39;113656;-54
2021/07/22 01:12:56;;;;;;;;;;;;;;;25.04;49.84;102121.22;2211976;39;113822;-54
2021/07/22 01:14:27;;;;;;;;;;;;;;;25.04;50.14;102123.19;2204755;39;113714;-54
2021/07/22 01:15:59;;;;;;;;;;;;;;;25.05;49.93;102122.06;2210460;39;113961;-54
2021/07/22 01:17:34;;;;;;;;;;;;;;;25.05;50.19;102122.06;2210031;39;113688;-54
2021/07/22 01:19:05;;;;;;;;;;;;;;;25.06;49.95;102121.75;2204354;39;114219;-54
2021/07/22 01:20:37;;;;;;;;;;;;;;;25.06;49.97;102121.75;2211999;39;113818;-54
2021/07/22 01:22:08;;;;;;;;;;;;;;;25.06;50.23;102121.75;2209861;39;115169;-54
2021/07/22 01:23:40;;;;;;;;;;;;;;;25.07;50.68;102114.94;2209192;39;114846;-54
2021/07/22 01:25:12;;;;;;;;;;;;;;;25.08;50.55;102127.06;2206684;39;114828;-54
2021/07/22 01:26:44;;;;;;;;;;;;;;;25.09;50.59;102131.59;2207361;39;115027;-54
2021/07/22 01:28:15;;;;;;;;;;;;;;;25.09;50.55;102129.59;2207132;39;115244;-54
2021/07/22 01:29:48;;;;;;;;;;;;;;;25.09;50.21;102128.75;2206767;39;113735;-56
2021/07/22 01:31:24;;;;;;;;;;;;;;;25.11;50.31;102124.47;2210129;39;115032;-54
2021/07/22 01:32:56;;;;;;;;;;;;;;;25.10;50.74;102125.63;2216121;39;114825;-54
2021/07/22 01:34:27;;;;;;;;;;;;;;;25.11;50.64;102124.47;2209951;39;114907;-54
2021/07/22 01:35:59;;;;;;;;;;;;;;;25.11;50.47;102123.63;2203571;39;114968;-55
2021/07/22 01:37:31;;;;;;;;;;;;;;;25.12;50.87;102123.31;2207524;39;115309;-54
2021/07/22 01:39:02;;;;;;;;;;;;;;;25.12;50.80;102116.84;2209564;39;113804;-54
2021/07/22 01:40:34;;;;;;;;;;;;;;;25.12;50.49;102123.31;2201401;39;113846;-54
2021/07/22 01:42:06;;;;;;;;;;;;;;;25.13;50.92;102121.31;2210565;39;114924;-54
2021/07/22 01:43:37;;;;;;;;;;;;;;;25.12;50.59;102126.13;2211503;39;115642;-54
2021/07/22 01:45:10;;;;;;;;;;;;;;;25.15;50.93;102122.72;2213195;39;115671;-54
2021/07/22 01:46:41;;;;;;;;;;;;;;;25.12;51.08;102123.31;2211146;39;115572;-54
2021/07/22 01:48:13;;;;;;;;;;;;;;;25.14;50.69;102121.03;2214932;39;115615;-54
2021/07/22 01:49:44;;;;;;;;;;;;;;;25.14;50.84;102123.84;2208393;39;116014;-54
2021/07/22 01:51:16;;;;;;;;;;;;;;;25.15;51.10;102122.72;2208886;39;115520;-54
2021/07/22 01:52:48;;;;;;;;;;;;;;;25.15;51.08;102125.53;2211606;39;116196;-54
2021/07/22 01:54:19;;;;;;;;;;;;;;;25.15;50.81;102122.72;2210975;39;115517;-54
2021/07/22 01:55:51;;;;;;;;;;;;;;;25.16;50.92;102124.41;2210619;39;115622;-54
2021/07/22 01:57:23;;;;;;;;;;;;;;;25.17;50.90;102123.22;2211447;39;116524;-54
2021/07/22 01:58:54;;;;;;;;;;;;;;;25.16;50.97;102118.72;2211746;39;116271;-54
2021/07/22 02:00:26;;;;;;;;;;;;;;;25.18;51.22;102124.06;2210654;39;115145;-54
2021/07/22 02:01:57;;;;;;;;;;;;;;;25.17;51.04;102122.38;2210817;39;115046;-54
2021/07/22 02:03:30;;;;;;;;;;;;;;;25.19;51.38;102125.75;2206821;39;115568;-54
2021/07/22 02:05:02;;;;;;;;;;;;;;;25.17;51.09;102117.56;2210615;39;114629;-54
2021/07/22 02:06:34;;;;;;;;;;;;;;;25.19;51.03;102122.91;2199969;39;113751;-54
2021/07/22 02:08:05;;;;;;;;;;;;;;;25.18;51.45;102126.88;2209043;39;113880;-54
2021/07/22 02:09:37;;;;;;;;;;;;;;;25.17;51.23;102123.22;2210377;39;113640;-54
2021/07/22 02:11:09;;;;;;;;;;;;;;;25.17;51.62;102134.53;2209952;39;113933;-54
2021/07/22 02:12:41;;;;;;;;;;;;;;;25.18;51.46;102124.91;2208578;39;113850;-54
2021/07/22 02:14:12;;;;;;;;;;;;;;;25.19;51.26;102123.75;2210204;39;114084;-54
2021/07/22 02:15:44;;;;;;;;;;;;;;;25.20;51.72;102124.59;2211189;39;113767;-54
2021/07/22 02:17:17;;;;;;;;;;;;;;;25.19;51.60;102126.59;2210393;39;113700;-54
2021/07/22 02:18:49;;;;;;;;;;;;;;;25.21;51.35;102121.44;2211380;39;113772;-54
2021/07/22 02:20:21;;;;;;;;;;;;;;;25.21;51.68;102127.09;2209361;39;113841;-53
2021/07/22 02:21:53;;;;;;;;;;;;;;;25.21;51.41;102127.09;2207396;39;113929;-53
2021/07/22 02:23:24;;;;;;;;;;;;;;;25.21;51.68;102118.59;2208303;39;114002;-53
2021/07/22 02:24:56;;;;;;;;;;;;;;;25.23;51.42;102126.78;2211373;39;113708;-53
2021/07/22 02:26:27;;;;;;;;;;;;;;;25.23;51.80;102124.81;2213785;39;113805;-53
2021/07/22 02:27:59;;;;;;;;;;;;;;;25.24;51.44;102125.66;2210501;39;113967;-53
2021/07/22 02:29:31;;;;;;;;;;;;;;;25.23;51.62;102124.81;2211227;39;114701;-53
2021/07/22 02:31:02;;;;;;;;;;;;;;;25.23;51.65;102119.16;2211753;39;115677;-53
2021/07/22 02:32:34;;;;;;;;;;;;;;;25.25;51.55;102130.16;2205192;39;114871;-53
2021/07/22 02:34:06;;;;;;;;;;;;;;;25.24;51.78;102123.66;2210530;39;114773;-53
2021/07/22 02:35:37;;;;;;;;;;;;;;;25.24;51.62;102126.50;2203252;39;114897;-53
2021/07/22 02:37:09;;;;;;;;;;;;;;;25.25;51.60;102124.50;2202531;39;114117;-53
2021/07/22 02:38:41;;;;;;;;;;;;;;;25.24;51.82;102126.50;2200935;39;114837;-53
2021/07/22 02:40:14;;;;;;;;;;;;;;;25.23;51.99;102130.47;2212846;39;114818;-53
2021/07/22 02:41:45;;;;;;;;;;;;;;;25.24;51.63;102126.50;2209528;39;115233;-53
2021/07/22 02:43:17;;;;;;;;;;;;;;;25.24;51.65;102129.31;2207896;39;113828;-53
2021/07/22 02:44:49;;;;;;;;;;;;;;;25.24;51.73;102137.81;2209078;39;115461;-53
2021/07/22 02:46:20;;;;;;;;;;;;;;;25.26;51.65;102136.66;2208842;39;114554;-53
2021/07/22 02:47:52;;;;;;;;;;;;;;;25.25;51.70;102138.66;2210035;39;114845;-53
2021/07/22 02:49:23;;;;;;;;;;;;;;;25.25;51.61;102130.16;2210861;39;115638;-53
2021/07/22 02:50:55;;;;;;;;;;;;;;;25.26;51.98;102128.19;2210170;39;115417;-54
2021/07/22 02:52:27;;;;;;;;;;;;;;;25.26;51.68;102131.81;2211013;39;115478;-54
2021/07/22 02:53:58;;;;;;;;;;;;;;;25.26;51.88;102122.53;2209636;39;115711;-56
2021/07/22 02:55:30;;;;;;;;;;;;;;;25.26;52.12;102129.00;2209008;39;115529;-54
2021/07/22 02:57:02;;;;;;;;;;;;;;;25.26;52.03;102128.19;2209903;39;115675;-54
2021/07/22 02:58:33;;;;;;;;;;;;;;;25.27;52.09;102127.84;2207940;39;115656;-54
2021/07/22 03:00:06;;;;;;;;;;;;;;;25.28;51.84;102125.84;2204456;39;115673;-54
2021/07/22 03:01:39;;;;;;;;;;;;;;;25.28;52.04;102126.69;2205893;39;114663;-54
2021/07/22 03:03:11;;;;;;;;;;;;;;;25.26;52.21;102117.69;2208395;39;115620;-54
2021/07/22 03:04:43;;;;;;;;;;;;;;;25.28;52.18;102125.84;2211560;39;115604;-54
2021/07/22 03:06:16;;;;;;;;;;;;;;;25.28;52.23;102125.84;2210382;39;115754;-54
2021/07/22 03:07:47;;;;;;;;;;;;;;;25.28;51.80;102121.03;2209772;39;115799;-54
2021/07/22 03:09:19;;;;;;;;;;;;;;;25.29;51.87;102116.22;2207572;39;115776;-54
2021/07/22 03:10:51;;;;;;;;;;;;;;;25.28;52.26;102115.38;2210524;39;113741;-54
2021/07/22 03:12:23;;;;;;;;;;;;;;;25.28;52.20;102125.84;2214269;39;113722;-54
2021/07/22 03:13:56;;;;;;;;;;;;;;;25.30;52.04;102115.09;2211195;39;113790;-54
2021/07/22 03:15:28;;;;;;;;;;;;;;;25.30;52.26;102115.09;2216256;39;113779;-54
2021/07/22 03:17:00;;;;;;;;;;;;;;;25.29;52.31;102119.06;2209397;39;113763;-54
2021/07/22 03:18:32;;;;;;;;;;;;;;;25.30;51.99;102120.75;2196181;39;113898;-54
2021/07/22 03:20:04;;;;;;;;;;;;;;;25.29;52.11;102113.41;2206891;39;113956;-54
2021/07/22 03:21:35;;;;;;;;;;;;;;;25.30;52.47;102115.09;2209695;39;113916;-54
2021/07/22 03:23:07;;;;;;;;;;;;;;;25.31;52.49;102108.25;2209102;39;113706;-54
2021/07/22 03:24:39;;;;;;;;;;;;;;;25.31;52.18;102120.41;2208448;39;113907;-54
2021/07/22 03:26:15;;;;;;;;;;;;;;;25.30;52.50;102117.91;2208081;39;113939;-54
2021/07/22 03:27:47;;;;;;;;;;;;;;;25.31;52.65;102116.75;2209854;39;113786;-54
2021/07/22 03:29:19;;;;;;;;;;;;;;;25.30;52.43;102121.59;2208290;39;113681;-54
2021/07/22 03:30:50;;;;;;;;;;;;;;;25.31;52.35;102119.56;2208236;39;113766;-54
2021/07/22 03:32:22;;;;;;;;;;;;;;;25.31;52.70;102116.75;2209184;39;113683;-54
2021/07/22 03:33:54;;;;;;;;;;;;;;;25.31;52.28;102120.41;2210460;39;114974;-54
2021/07/22 03:35:26;;;;;;;;;;;;;;;25.29;52.42;102110.56;2206818;39;114744;-54
2021/07/22 03:36:57;;;;;;;;;;;;;;;25.31;52.64;102114.75;2209118;39;114720;-54
2021/07/22 03:38:29;;;;;;;;;;;;;;;25.32;52.68;102109.94;2207326;39;114938;-54
2021/07/22 03:40:01;;;;;;;;;;;;;;;25.31;52.42;102113.91;2210680;39;113996;-54
2021/07/22 03:41:32;;;;;;;;;;;;;;;25.31;52.65;102111.91;2211191;39;114876;-54
2021/07/22 03:43:04;;;;;;;;;;;;;;;25.31;52.47;102109.09;2211320;39;115020;-53
2021/07/22 03:44:36;;;;;;;;;;;;;;;25.32;52.43;102107.94;2211063;39;114892;-54
2021/07/22 03:46:07;;;;;;;;;;;;;;;25.31;52.64;102114.75;2209479;39;114735;-53
2021/07/22 03:47:39;;;;;;;;;;;;;;;25.31;52.60;102109.09;2210452;39;114622;-57
2021/07/22 03:49:11;;;;;;;;;;;;;;;25.32;52.43;102121.25;2211240;39;114070;-53
2021/07/22 03:50:48;;;;;;;;;;;;;;;25.32;52.46;102121.25;2211472;39;114545;-54
2021/07/22 03:52:19;;;;;;;;;;;;;;;25.31;52.42;102114.75;2204296;39;115292;-54
2021/07/22 03:53:51;;;;;;;;;;;;;;;25.31;52.54;102114.75;2213044;39;115222;-54
2021/07/22 03:55:24;;;;;;;;;;;;;;;25.31;52.45;102116.75;2211005;39;115615;-53
2021/07/22 03:56:55;;;;;;;;;;;;;;;25.30;52.87;102115.94;2209716;39;115803;-54
2021/07/22 03:58:27;;;;;;;;;;;;;;;25.31;52.82;102111.06;2210919;39;115724;-54
2021/07/22 03:59:59;;;;;;;;;;;;;;;25.32;52.57;102113.59;2210171;39;114676;-54
2021/07/22 04:01:30;;;;;;;;;;;;;;;25.32;52.95;102109.94;2210872;39;115790;-54
2021/07/22 04:03:04;;;;;;;;;;;;;;;25.33;52.99;102105.97;2203967;39;115569;-54
2021/07/22 04:04:36;;;;;;;;;;;;;;;25.34;52.92;102107.66;2208226;39;115902;-54
2021/07/22 04:06:10;;;;;;;;;;;;;;;25.33;52.84;102112.47;2211421;39;115503;-54
2021/07/22 04:07:42;;;;;;;;;;;;;;;25.33;52.66;102111.63;2205125;39;115922;-54
2021/07/22 04:09:13;;;;;;;;;;;;;;;25.34;52.84;102110.47;2216048;39;115737;-54
2021/07/22 04:10:45;;;;;;;;;;;;;;;25.34;52.91;102107.66;2212171;39;115764;-54
2021/07/22 04:12:17;;;;;;;;;;;;;;;25.34;52.58;102110.47;2212089;39;115899;-53
2021/07/22 04:13:49;;;;;;;;;;;;;;;25.35;52.73;102115.00;2211742;39;115908;-54
2021/07/22 04:15:22;;;;;;;;;;;;;;;25.33;52.64;102111.63;2213200;39;115125;-54
2021/07/22 04:16:54;;;;;;;;;;;;;;;25.34;52.64;102118.97;2211323;39;113571;-54
2021/07/22 04:18:26;;;;;;;;;;;;;;;25.35;52.58;102123.47;2209385;39;113788;-56
2021/07/22 04:19:58;;;;;;;;;;;;;;;25.33;52.70;102118.13;2210136;39;113859;-54
2021/07/22 04:21:30;;;;;;;;;;;;;;;25.34;52.99;102119.81;2209837;39;113891;-54
2021/07/22 04:23:01;;;;;;;;;;;;;;;25.34;52.67;102118.97;2207492;39;114130;-54
2021/07/22 04:24:33;;;;;;;;;;;;;;;25.32;52.94;102116.44;2197156;39;114086;-54
2021/07/22 04:26:05;;;;;;;;;;;;;;;25.34;52.75;102124.63;2191560;39;113607;-54
2021/07/22 04:27:37;;;;;;;;;;;;;;;25.34;52.75;102116.13;2189785;39;113928;-54
2021/07/22 04:29:08;;;;;;;;;;;;;;;25.34;52.28;102116.97;2192872;39;113628;-54
2021/07/22 04:30:40;;;;;;;;;;;;;;;25.34;52.26;102118.97;2196270;39;113782;-54
2021/07/22 04:32:12;;;;;;;;;;;;;;;25.34;52.58;102114.16;2194503;39;114342;-54
2021/07/22 04:33:45;;;;;;;;;;;;;;;25.33;52.57;102118.13;2197367;39;113718;-54
2021/07/22 04:35:17;;;;;;;;;;;;;;;25.34;52.38;102124.63;2198297;39;113856;-54
2021/07/22 04:36:48;;;;;;;;;;;;;;;25.33;52.71;102129.44;2201219;39;113697;-54
2021/07/22 04:38:20;;;;;;;;;;;;;;;25.32;52.50;102124.94;2197949;39;115237;-54
2021/07/22 04:39:52;;;;;;;;;;;;;;;25.34;52.33;102121.78;2196424;39;114531;-54
2021/07/22 04:41:23;;;;;;;;;;;;;;;25.34;52.36;102128.28;2197127;39;115323;-54
2021/07/22 04:42:55;;;;;;;;;;;;;;;25.34;52.78;102124.63;2198214;39;114777;-54
2021/07/22 04:44:27;;;;;;;;;;;;;;;25.35;52.43;102120.66;2202139;39;114900;-54
2021/07/22 04:46:08;;;;;;;;;;;;;;;25.34;52.45;102127.44;2202355;39;114855;-54
2021/07/22 04:47:40;;;;;;;;;;;;;;;25.33;52.67;102135.09;2203419;39;113925;-54
2021/07/22 04:49:12;;;;;;;;;;;;;;;25.34;52.77;102130.28;2191472;39;115431;-54
2021/07/22 04:50:44;;;;;;;;;;;;;;;25.34;52.85;102135.94;2199174;39;114896;-54
2021/07/22 04:52:15;;;;;;;;;;;;;;;25.34;52.48;102141.59;2201873;39;114926;-54
2021/07/22 04:53:47;;;;;;;;;;;;;;;25.33;52.37;102137.94;2198450;39;115102;-54
2021/07/22 04:55:19;;;;;;;;;;;;;;;25.34;52.86;102147.25;2198450;39;115050;-54
2021/07/22 04:56:50;;;;;;;;;;;;;;;25.34;52.50;102142.44;2197758;39;114949;-54
2021/07/22 04:58:22;;;;;;;;;;;;;;;25.34;52.68;102142.44;2194316;39;114874;-54
2021/07/22 04:59:54;;;;;;;;;;;;;;;25.33;52.45;102140.75;2201393;39;116244;-54
2021/07/22 05:01:25;;;;;;;;;;;;;;;25.34;52.65;102138.78;2194824;39;116445;-54
2021/07/22 05:02:58;;;;;;;;;;;;;;;25.34;52.91;102142.44;2196201;39;115694;-54
2021/07/22 05:04:30;;;;;;;;;;;;;;;25.34;52.50;102148.09;2191287;39;114799;-54
2021/07/22 05:06:02;;;;;;;;;;;;;;;25.34;52.63;102150.09;2195947;39;115089;-55
2021/07/22 05:07:33;;;;;;;;;;;;;;;25.34;53.07;102141.59;2198381;39;115506;-53
2021/07/22 05:09:05;;;;;;;;;;;;;;;25.34;52.92;102142.44;2197428;39;115454;-54
2021/07/22 05:10:37;;;;;;;;;;;;;;;25.33;52.79;102140.75;2197533;39;116037;-54
2021/07/22 05:12:09;;;;;;;;;;;;;;;25.33;53.11;102146.41;2196604;39;116137;-54
2021/07/22 05:13:43;;;;;;;;;;;;;;;25.33;53.13;102149.25;2195483;39;115563;-54
2021/07/22 05:15:15;;;;;;;;;;;;;;;25.33;53.04;102148.41;2196030;39;114642;-54
2021/07/22 05:16:47;;;;;;;;;;;;;;;25.33;53.07;102154.06;2202120;39;116144;-54
2021/07/22 05:18:18;;;;;;;;;;;;;;;25.33;53.19;102160.56;2199393;39;115433;-54
2021/07/22 05:19:50;;;;;;;;;;;;;;;25.33;53.37;102157.72;2198463;39;116083;-54
2021/07/22 05:21:21;;;;;;;;;;;;;;;25.34;53.19;102156.59;2200688;39;115553;-54
2021/07/22 05:22:53;;;;;;;;;;;;;;;25.35;53.28;102154.59;2197101;39;113923;-54
2021/07/22 05:24:25;;;;;;;;;;;;;;;25.35;53.17;102157.44;2205643;39;113897;-54
2021/07/22 05:25:56;;;;;;;;;;;;;;;25.33;53.65;102163.38;2210820;39;114095;-54
2021/07/22 05:27:28;;;;;;;;;;;;;;;25.33;53.77;102160.56;2205166;39;114129;-54
2021/07/22 05:29:00;;;;;;;;;;;;;;;25.34;53.85;102155.75;2211593;39;113688;-54
2021/07/22 05:30:31;;;;;;;;;;;;;;;25.36;53.83;102159.09;2211308;39;113717;-54
2021/07/22 05:32:03;;;;;;;;;;;;;;;25.37;53.68;102160.78;2210651;39;113931;-54
2021/07/22 05:33:35;;;;;;;;;;;;;;;25.35;53.73;102154.59;2211921;39;113932;-54
2021/07/22 05:35:08;;;;;;;;;;;;;;;25.35;53.41;102154.59;2211464;39;113880;-54
2021/07/22 05:36:40;;;;;;;;;;;;;;;25.34;53.86;102159.41;2210305;39;113594;-54
2021/07/22 05:38:12;;;;;;;;;;;;;;;25.36;53.50;102159.09;2209614;39;113717;-54
2021/07/22 05:39:44;;;;;;;;;;;;;;;25.35;53.58;102158.25;2215027;39;113919;-54
2021/07/22 05:41:15;;;;;;;;;;;;;;;25.36;53.83;102161.91;2213006;39;113704;-54
2021/07/22 05:42:49;;;;;;;;;;;;;;;25.35;53.88;102163.91;2214294;39;113992;-53
2021/07/22 05:44:20;;;;;;;;;;;;;;;25.35;53.90;102161.06;2211801;39;115714;-54
2021/07/22 05:45:52;;;;;;;;;;;;;;;25.35;53.93;102152.59;2209376;39;115105;-54
2021/07/22 05:47:23;;;;;;;;;;;;;;;25.35;53.53;102149.75;2200469;39;115052;-54
2021/07/22 05:48:55;;;;;;;;;;;;;;;25.38;53.53;102168.13;2206695;39;114767;-54
2021/07/22 05:50:27;;;;;;;;;;;;;;;25.36;53.69;102164.75;2208722;39;114838;-54
2021/07/22 05:51:59;;;;;;;;;;;;;;;25.35;53.86;102155.41;2211111;39;114883;-54
2021/07/22 05:53:32;;;;;;;;;;;;;;;25.36;53.90;102156.25;2210803;39;115016;-54
2021/07/22 05:55:04;;;;;;;;;;;;;;;25.36;54.00;102162.75;2207995;39;115062;-54
2021/07/22 05:56:36;;;;;;;;;;;;;;;25.36;53.97;102161.91;2205341;39;114931;-54
2021/07/22 05:58:07;;;;;;;;;;;;;;;25.36;54.03;102165.59;2210841;39;115735;-54
2021/07/22 05:59:39;;;;;;;;;;;;;;;25.36;53.97;102164.75;2205265;39;114832;-54
2021/07/22 06:01:11;;;;;;;;;;;;;;;25.36;53.84;102168.41;2210232;39;115406;-54
2021/07/22 06:02:43;;;;;;;;;;;;;;;25.35;53.65;102166.72;2216326;39;114839;-54
2021/07/22 06:04:15;;;;;;;;;;;;;;;25.36;53.70;102170.41;2215864;39;115649;-54
2021/07/22 06:05:46;;;;;;;;;;;;;;;25.35;53.62;102163.91;2210858;39;115600;-54
2021/07/22 06:07:18;;;;;;;;;;;;;;;25.35;53.57;102165.91;2210563;39;114682;-54
2021/07/22 06:08:50;;;;;;;;;;;;;;;25.35;53.77;102160.25;2207833;39;115741;-54
2021/07/22 06:10:21;;;;;;;;;;;;;;;25.36;54.05;102162.75;2206068;39;115383;-54
2021/07/22 06:11:53;;;;;;;;;;;;;;;25.37;53.71;102172.09;2215264;39;114545;-54
2021/07/22 06:13:25;;;;;;;;;;;;;;;25.34;53.92;102165.06;2207583;39;115469;-54
2021/07/22 06:14:57;;;;;;;;;;;;;;;25.35;54.15;102171.56;2213620;39;114589;-53
2021/07/22 06:16:30;;;;;;;;;;;;;;;25.35;54.06;102165.91;2210308;39;115725;-54
2021/07/22 06:18:02;;;;;;;;;;;;;;;25.36;54.03;102161.91;2210637;39;116155;-54
2021/07/22 06:19:33;;;;;;;;;;;;;;;25.36;54.02;102161.91;2211334;39;114539;-54
2021/07/22 06:21:06;;;;;;;;;;;;;;;25.36;53.66;102159.09;2211326;39;114695;-54
2021/07/22 06:22:38;;;;;;;;;;;;;;;25.37;53.60;102157.94;2210626;39;115484;-54
2021/07/22 06:24:10;;;;;;;;;;;;;;;25.37;53.68;102166.44;2211159;39;115515;-54
2021/07/22 06:25:41;;;;;;;;;;;;;;;25.36;53.47;102161.91;2214050;39;116386;-55
2021/07/22 06:27:13;;;;;;;;;;;;;;;25.37;53.31;102163.59;2211203;39;113753;-53
2021/07/22 06:28:45;;;;;;;;;;;;;;;25.32;53.75;102158.03;2204211;39;113828;-54
2021/07/22 06:30:16;;;;;;;;;;;;;;;25.34;53.41;102158.56;2210080;39;113820;-54
2021/07/22 06:31:48;;;;;;;;;;;;;;;25.35;53.71;102157.44;2211206;39;113619;-54
2021/07/22 06:33:20;;;;;;;;;;;;;;;25.35;53.79;102163.09;2210258;39;113800;-61
2021/07/22 06:34:52;;;;;;;;;;;;;;;25.31;53.65;102156.34;2211140;39;113884;-54
2021/07/22 06:36:24;;;;;;;;;;;;;;;25.33;54.05;102162.53;2211652;39;113705;-54
2021/07/22 06:37:56;;;;;;;;;;;;;;;25.33;53.65;102156.88;2208240;39;113947;-54
2021/07/22 06:39:32;;;;;;;;;;;;;;;25.31;54.04;102162.00;2207530;39;113738;-55
2021/07/22 06:41:03;;;;;;;;;;;;;;;25.34;53.72;102158.56;2210866;39;113829;-54
2021/07/22 06:42:35;;;;;;;;;;;;;;;25.36;53.62;102159.09;2211771;39;113712;-54
2021/07/22 06:44:07;;;;;;;;;;;;;;;25.36;53.42;102159.09;2205732;39;113748;-54
2021/07/22 06:45:38;;;;;;;;;;;;;;;25.35;53.68;102154.59;2209729;39;114073;-54
2021/07/22 06:47:10;;;;;;;;;;;;;;;25.36;54.02;102159.09;2209881;39;113872;-54
2021/07/22 06:48:42;;;;;;;;;;;;;;;25.36;54.05;102151.44;2213857;39;113819;-54
2021/07/22 06:50:14;;;;;;;;;;;;;;;25.35;53.85;102149.75;2211526;39;114202;-54
2021/07/22 06:51:48;;;;;;;;;;;;;;;25.36;54.21;102159.09;2209772;39;114811;-54
2021/07/22 06:53:21;;;;;;;;;;;;;;;25.37;54.05;102152.28;2208807;39;114808;-54
2021/07/22 06:54:52;;;;;;;;;;;;;;;25.37;53.89;102146.63;2209013;39;114861;-54
2021/07/22 06:56:24;;;;;;;;;;;;;;;25.36;53.97;102151.44;2206864;39;114984;-54
2021/07/22 06:57:56;;;;;;;;;;;;;;;25.37;54.07;102157.94;2210464;39;114041;-54
2021/07/22 06:59:27;;;;;;;;;;;;;;;25.37;54.34;102149.44;2211017;39;114398;-54
2021/07/22 07:00:59;;;;;;;;;;;;;;;25.38;54.29;102156.78;2210508;39;114986;-53
2021/07/22 07:02:31;;;;;;;;;;;;;;;25.37;53.92;102158.78;2206533;39;115432;-54
2021/07/22 07:04:03;;;;;;;;;;;;;;;25.39;53.97;102155.66;2210726;39;114809;-54
2021/07/22 07:05:35;;;;;;;;;;;;;;;25.38;53.91;102154.81;2207728;39;114938;-54
2021/07/22 07:07:07;;;;;;;;;;;;;;;25.39;53.90;102152.81;2210644;39;115298;-54
2021/07/22 07:08:42;;;;;;;;;;;;;;;25.39;54.34;102158.47;2211356;39;114734;-54
2021/07/22 07:10:14;;;;;;;;;;;;;;;25.39;53.94;102150.84;2213102;39;114949;-54
2021/07/22 07:11:45;;;;;;;;;;;;;;;25.40;53.96;102152.50;2215138;39;115611;-54
2021/07/22 07:13:17;;;;;;;;;;;;;;;25.39;54.09;102145.19;2201627;39;115777;-54
2021/07/22 07:14:49;;;;;;;;;;;;;;;25.40;54.15;102154.47;2208069;39;116208;-54
2021/07/22 07:16:21;;;;;;;;;;;;;;;25.40;54.16;102152.50;2210967;39;115583;-54
2021/07/22 07:17:53;;;;;;;;;;;;;;;25.40;53.94;102151.66;2210837;39;115669;-54
2021/07/22 07:19:24;;;;;;;;;;;;;;;25.41;54.32;102156.16;2208337;39;115436;-54
2021/07/22 07:20:56;;;;;;;;;;;;;;;25.41;54.23;102154.16;2210567;39;114164;-54
2021/07/22 07:22:28;;;;;;;;;;;;;;;25.42;54.17;102160.69;2210260;39;115582;-54
2021/07/22 07:24:00;;;;;;;;;;;;;;;25.43;54.30;102165.19;2207564;39;116171;-54
2021/07/22 07:25:33;;;;;;;;;;;;;;;25.42;54.03;102160.69;2210921;39;116713;-54
2021/07/22 07:27:05;;;;;;;;;;;;;;;25.42;54.37;102161.53;2203848;39;115512;-54
2021/07/22 07:28:37;;;;;;;;;;;;;;;25.43;54.34;102162.34;2211211;39;115394;-54
2021/07/22 07:30:09;;;;;;;;;;;;;;;25.43;54.20;102156.69;2209670;39;115062;-54
2021/07/22 07:31:41;;;;;;;;;;;;;;;25.40;54.04;102160.97;2213290;39;115619;-54
2021/07/22 07:33:13;;;;;;;;;;;;;;;25.42;54.09;102157.84;2206461;39;113737;-54
2021/07/22 07:34:45;;;;;;;;;;;;;;;25.42;53.92;102155.84;2208438;39;113856;-54
2021/07/22 07:36:17;;;;;;;;;;;;;;;25.44;53.79;102156.38;2205069;39;113928;-54
2021/07/22 07:37:48;;;;;;;;;;;;;;;25.43;53.76;102157.53;2200142;39;113805;-54
2021/07/22 07:39:20;;;;;;;;;;;;;;;25.44;54.01;102156.38;2207957;39;113868;-54
2021/07/22 07:40:52;;;;;;;;;;;;;;;25.44;54.09;102159.19;2208979;39;113734;-54
2021/07/22 07:42:24;;;;;;;;;;;;;;;25.44;53.86;102158.38;2211451;39;113775;-54
2021/07/22 07:43:56;;;;;;;;;;;;;;;25.45;53.77;102154.38;2210835;39;113825;-54
2021/07/22 07:45:29;;;;;;;;;;;;;;;25.45;54.10;102157.22;2210218;39;113862;-54
2021/07/22 07:47:01;;;;;;;;;;;;;;;25.45;53.84;102162.88;2209566;39;113775;-54